Alma, CO (80420)

1:16 PM MDT on July 07, 2015 (GMT -0600)
Valley of the Sun | | Change Station
CLOSE
Current Station
Personal Weather Station
Location: Fairplay, CO
Elevation: 11000 ft
Nearby Weather Stations

Elev 11000 ft 39.24 °N, 106.11 °W | Updated 15 minutes ago

Rain
Rain
49.5 °F
Feels Like 48 °F
N
5.0
Wind Variable Wind from WSW
Gusts 5.0 mph

Today
High -- | Low -- °F
--% Chance of Precip.
Yesterday
High -- | Low -- °F
Precip. -- in
5:44 AM 8:33 PM
Waning Gibbous, 62% visible
Pressure 30.53 in
Visibility 1.2 miles
Clouds Mostly Cloudy 200 ft
Mostly Cloudy 800 ft
Overcast 1900 ft
Windchill 48 °F
Dew Point 46 °F
Humidity 86%
Rainfall 0.11 in
Snow Depth Not available.
UV 4 out of 12
Pollen 4.80 out of 12
Air Quality Not available.
Flu Activity Not available.
METAR KCCU 071855Z AUTO 27019G24KT 1 1/4SM -TSRA BKN002 BKN008 OVC019 08/05 A3053 RMK AO2 P0015 LTG DSNT ALQS

More Conditions Fewer Conditions

Pressure 30.53 in
Visibility 1.2 miles
Clouds Mostly Cloudy 200 ft
Mostly Cloudy 800 ft
Overcast 1900 ft
Windchill 48 °F
Dew Point 46 °F
Humidity 86%
Rainfall 0.11 in
Snow Depth Not available.
UV 4 out of 12
Pollen 4.80 out of 12
Air Quality Not available.
Flu Activity Not available.
METAR KCCU 071855Z AUTO 27019G24KT 1 1/4SM -TSRA BKN002 BKN008 OVC019 08/05 A3053 RMK AO2 P0015 LTG DSNT ALQS

More Conditions Fewer Conditions

Nowcast | as of 1:15 PM MDT on July 7, 2015

Scattered rain showers and a few thunderstorms will continue moving over the Front Range foothills...mountains and high Parks through this afternoon. Showers will produce up to a half inch of rain in 30 to 45 minutes along with some pea-sized hail and gusty winds up to 35 mph.

×

10-Day Weather Forecast

×

Almanac

Astronomy

Jul. 07, 2015 Rise Set
Actual Time
Civil Twilight
Nautical Twilight
Astronomical Twilight
Moon
Length of Visible Light
Length of Day
Tomorrow will be .
, % of the Moon is Illuminated

Today's Extremes

State Highs State Lows

Community

WunderPhotos

Upload Photos

1,835,875 photos uploaded!

WunderBlogs® & News

Nearby

Air Quality

  Air Quality AQ Index Pollutant
Not available.

Snow Depth

Station Depth Elevation

Earthquake Activity

City Distance Mag. Time & Date
Minimum magnitude displayed is 2.5.

Coastal Water Temperatures

Place Temperature

Stations

Nearby Weather Stations

Station Location Temp. Windchill Dew Point Humidity Wind Precip. Elev Updated Type